Time;durP1;ratioP1;P1;durP2;ratioP2;P2;SDS_P1;SDS_P2;PMS_P1;PMS_P2;Temp;Humidity;BMP_temperature;BMP_pressure;BME280_temperature;BME280_humidity;BME280_pressure;Samples;Min_cycle;Max_cycle;Signal;HPM_P1;HPM_P2
2022/05/03 00:02:02;;;;;;;;;;;;;;;;;;5095615;27;19942;-77
2022/05/03 00:04:39;;;;;;;;;;;;;;;;;;5094618;28;19919;-78
2022/05/03 00:07:17;;;;;;;;;;;;;;;;;;5093352;28;19916;-78
2022/05/03 00:10:01;;;;;;;;;;;;;;;;;;5093379;28;19920;-78
2022/05/03 00:12:34;;;;;;;;;;;;;;;;;;5093300;28;19924;-78
2022/05/03 00:15:00;;;;;;;;;;;;;;;;;;5094740;28;20014;-77
2022/05/03 00:17:26;;;;;;;;;;;;;;;;;;5094214;28;19916;-77
2022/05/03 00:19:53;;;;;;;;;;;;;;;;;;5094444;28;19920;-78
2022/05/03 00:22:19;;;;;;;;;;;;;;;;;;5094446;28;19939;-78
2022/05/03 00:24:45;;;;;;;;;;;;;;;;;;5093093;28;20372;-78
2022/05/03 00:27:11;;;;;;;;;;;;;;;;;;5092869;28;19923;-77
2022/05/03 00:29:37;;;;;;;;;;;;;;;;;;5094213;28;19928;-77
2022/05/03 00:32:03;;;;;;;;;;;;;;;;;;5094245;28;19946;-78
2022/05/03 00:34:29;;;;;;;;;;;;;;;;;;5094429;28;20332;-78
2022/05/03 00:36:55;;;;;;;;;;;;;;;;;;5094142;28;19916;-78
2022/05/03 00:39:20;;;;;;;;;;;;;;;;;;5092654;28;19939;-77
2022/05/03 00:41:53;;;;;;;;;;;;;;;;;;5093795;28;20034;-77
2022/05/03 00:47:35;;;;;;;;;;;;;;;;;;5093835;28;19962;-77
2022/05/03 00:50:08;;;;;;;;;;;;;;;;;;5094174;28;19955;-77
2022/05/03 00:52:33;;;;;;;;;;;;;;;;;;5094018;28;19920;-78
2022/05/03 00:55:18;;;;;;;;;;;;;;;;;;5111154;28;19916;-78
2022/05/03 00:58:01;;;;;;;;;;;;;;;;;;5114007;28;19924;-78
2022/05/03 01:00:28;;;;;;;;;;;;;;;;;;5114184;28;19916;-77
2022/05/03 01:03:12;;;;;;;;;;;;;;;;;;5114189;28;19916;-78
2022/05/03 01:05:37;;;;;;;;;;;;;;;;;;5112796;28;20295;-77
2022/05/03 01:08:04;;;;;;;;;;;;;;;;;;5114048;28;19922;-78
2022/05/03 01:10:34;;;;;;;;;;;;;;;;;;5113931;28;19968;-78
2022/05/03 01:13:05;;;;;;;;;;;;;;;;;;5114225;28;19916;-77
2022/05/03 01:15:32;;;;;;;;;;;;;;;;;;5115713;27;19916;-78
2022/05/03 01:18:06;;;;;;;;;;;;;;;;;;5118216;28;19923;-78
2022/05/03 01:20:50;;;;;;;;;;;;;;;;;;5118495;28;19912;-78
2022/05/03 01:23:40;;;;;;;;;;;;;;;;;;5118188;28;19915;-78
2022/05/03 01:26:05;;;;;;;;;;;;;;;;;;5118238;28;19963;-77
2022/05/03 01:28:34;;;;;;;;;;;;;;;;;;5118081;28;19958;-77
2022/05/03 01:31:05;;;;;;;;;;;;;;;;;;5118181;28;19915;-78
2022/05/03 01:33:36;;;;;;;;;;;;;;;;;;5116646;28;19926;-77
2022/05/03 01:36:02;;;;;;;;;;;;;;;;;;5116712;28;19922;-77
2022/05/03 01:38:34;;;;;;;;;;;;;;;;;;5117817;28;20010;-77
2022/05/03 01:41:22;;;;;;;;;;;;;;;;;;5099513;28;20332;-78
2022/05/03 01:43:56;;;;;;;;;;;;;;;;;;5114394;28;19930;-77
2022/05/03 01:46:23;;;;;;;;;;;;;;;;;;5116850;28;19961;-77
2022/05/03 01:51:45;;;;;;;;;;;;;;;;;;5118085;28;19978;-77
2022/05/03 01:54:21;;;;;;;;;;;;;;;;;;5117846;28;19961;-78
2022/05/03 01:57:08;;;;;;;;;;;;;;;;;;5116392;28;20396;-78
2022/05/03 01:59:45;;;;;;;;;;;;;;;;;;5117172;28;19972;-77
2022/05/03 02:02:16;;;;;;;;;;;;;;;;;;5116184;28;20006;-78
2022/05/03 02:04:56;;;;;;;;;;;;;;;;;;5116167;28;19915;-77
2022/05/03 02:07:41;;;;;;;;;;;;;;;;;;5117287;27;19916;-77
2022/05/03 02:10:21;;;;;;;;;;;;;;;;;;5116741;28;19915;-78
2022/05/03 02:12:52;;;;;;;;;;;;;;;;;;5119371;28;19969;-78
2022/05/03 02:15:22;;;;;;;;;;;;;;;;;;5118277;28;19916;-77
2022/05/03 02:17:50;;;;;;;;;;;;;;;;;;5117559;28;19920;-78
2022/05/03 02:20:34;;;;;;;;;;;;;;;;;;5117189;28;19959;-78
2022/05/03 02:22:59;;;;;;;;;;;;;;;;;;5117244;28;19916;-78
2022/05/03 02:25:24;;;;;;;;;;;;;;;;;;5117051;28;19922;-78
2022/05/03 02:28:02;;;;;;;;;;;;;;;;;;5116806;28;19916;-78
2022/05/03 02:30:31;;;;;;;;;;;;;;;;;;5115757;28;20290;-78
2022/05/03 02:32:56;;;;;;;;;;;;;;;;;;5115764;28;20013;-77
2022/05/03 02:35:23;;;;;;;;;;;;;;;;;;5116847;28;20031;-78
2022/05/03 02:37:49;;;;;;;;;;;;;;;;;;5116734;28;19916;-77
2022/05/03 02:40:19;;;;;;;;;;;;;;;;;;5115440;28;20268;-78
2022/05/03 02:42:45;;;;;;;;;;;;;;;;;;5116432;28;19916;-78
2022/05/03 02:45:12;;;;;;;;;;;;;;;;;;5116543;28;19923;-78
2022/05/03 02:47:43;;;;;;;;;;;;;;;;;;5116409;28;19996;-77
2022/05/03 02:50:12;;;;;;;;;;;;;;;;;;5116608;28;20038;-77
2022/05/03 02:52:46;;;;;;;;;;;;;;;;;;5115307;28;19922;-77
2022/05/03 02:55:21;;;;;;;;;;;;;;;;;;5115177;28;19916;-78
2022/05/03 02:57:54;;;;;;;;;;;;;;;;;;5115124;28;20485;-78
2022/05/03 03:03:23;;;;;;;;;;;;;;;;;;5116812;28;19967;-78
2022/05/03 03:05:53;;;;;;;;;;;;;;;;;;5116206;28;19970;-78
2022/05/03 03:08:19;;;;;;;;;;;;;;;;;;5114960;28;20011;-78
2022/05/03 03:10:53;;;;;;;;;;;;;;;;;;5114909;28;19955;-78
2022/05/03 03:13:44;;;;;;;;;;;;;;;;;;5114872;28;20363;-77
2022/05/03 03:16:12;;;;;;;;;;;;;;;;;;5114884;28;19916;-78
2022/05/03 03:18:40;;;;;;;;;;;;;;;;;;5116015;27;20007;-78
2022/05/03 03:21:08;;;;;;;;;;;;;;;;;;5114549;28;19915;-77
2022/05/03 03:23:35;;;;;;;;;;;;;;;;;;5107159;28;19956;-78
2022/05/03 03:26:00;;;;;;;;;;;;;;;;;;5095674;28;19923;-78
2022/05/03 03:28:28;;;;;;;;;;;;;;;;;;5096125;28;19917;-78
2022/05/03 03:30:54;;;;;;;;;;;;;;;;;;5115513;28;19916;-79
2022/05/03 03:33:19;;;;;;;;;;;;;;;;;;5149066;27;20294;-77
2022/05/03 03:35:45;;;;;;;;;;;;;;;;;;5116093;28;19969;-77
2022/05/03 03:38:13;;;;;;;;;;;;;;;;;;5100409;28;19984;-77
2022/05/03 03:40:39;;;;;;;;;;;;;;;;;;5095355;28;20002;-77
2022/05/03 03:43:05;;;;;;;;;;;;;;;;;;5095083;28;19920;-77
2022/05/03 03:45:30;;;;;;;;;;;;;;;;;;5095104;28;20331;-76
2022/05/03 03:47:56;;;;;;;;;;;;;;;;;;5095166;28;19916;-77
2022/05/03 03:50:25;;;;;;;;;;;;;;;;;;5102279;28;19915;-77
2022/05/03 03:52:51;;;;;;;;;;;;;;;;;;5113697;28;20302;-77
2022/05/03 03:55:17;;;;;;;;;;;;;;;;;;5105143;28;19916;-78
2022/05/03 03:57:43;;;;;;;;;;;;;;;;;;5093731;28;20028;-77
2022/05/03 04:00:15;;;;;;;;;;;;;;;;;;5095007;28;20372;-78
2022/05/03 04:02:41;;;;;;;;;;;;;;;;;;5095066;28;19971;-78
2022/05/03 04:05:07;;;;;;;;;;;;;;;;;;5094832;28;19919;-77
2022/05/03 04:07:33;;;;;;;;;;;;;;;;;;5094725;28;19943;-78
2022/05/03 04:09:58;;;;;;;;;;;;;;;;;;5093580;28;19916;-77
2022/05/03 04:12:24;;;;;;;;;;;;;;;;;;5114998;28;19939;-77
2022/05/03 04:14:50;;;;;;;;;;;;;;;;;;5115099;28;19916;-77
2022/05/03 04:17:15;;;;;;;;;;;;;;;;;;5106707;28;20010;-78
2022/05/03 04:19:42;;;;;;;;;;;;;;;;;;5110166;28;19920;-78
2022/05/03 04:22:27;;;;;;;;;;;;;;;;;;5111047;28;19970;-79
2022/05/03 04:24:52;;;;;;;;;;;;;;;;;;5106869;28;19924;-79
2022/05/03 04:27:19;;;;;;;;;;;;;;;;;;5111599;28;19916;-79
2022/05/03 04:29:44;;;;;;;;;;;;;;;;;;5112785;28;19916;-79
2022/05/03 04:32:09;;;;;;;;;;;;;;;;;;5112743;28;19960;-79
2022/05/03 04:34:35;;;;;;;;;;;;;;;;;;5111511;28;19945;-79
2022/05/03 04:37:01;;;;;;;;;;;;;;;;;;5112218;28;20342;-77
2022/05/03 04:39:26;;;;;;;;;;;;;;;;;;5111503;28;19919;-79
2022/05/03 04:41:52;;;;;;;;;;;;;;;;;;5113877;28;19963;-80
2022/05/03 04:44:18;;;;;;;;;;;;;;;;;;5114465;28;20435;-79
2022/05/03 04:46:43;;;;;;;;;;;;;;;;;;5114759;28;20411;-79
2022/05/03 04:49:09;;;;;;;;;;;;;;;;;;5113940;28;19916;-81
2022/05/03 04:51:34;;;;;;;;;;;;;;;;;;5114032;28;19915;-81
2022/05/03 04:54:00;;;;;;;;;;;;;;;;;;5114165;28;19915;-82
2022/05/03 04:56:25;;;;;;;;;;;;;;;;;;5114443;28;19982;-80
2022/05/03 04:58:51;;;;;;;;;;;;;;;;;;5114683;28;19923;-80
2022/05/03 05:01:17;;;;;;;;;;;;;;;;;;5112988;28;19980;-80
2022/05/03 05:03:43;;;;;;;;;;;;;;;;;;5092680;28;20376;-80
2022/05/03 05:06:09;;;;;;;;;;;;;;;;;;5093963;28;20287;-80
2022/05/03 05:08:35;;;;;;;;;;;;;;;;;;5092627;28;20394;-81
2022/05/03 05:11:01;;;;;;;;;;;;;;;;;;5093996;28;19923;-81
2022/05/03 05:13:26;;;;;;;;;;;;;;;;;;5093898;28;20010;-82
2022/05/03 05:15:52;;;;;;;;;;;;;;;;;;5094026;28;20389;-82
2022/05/03 05:18:17;;;;;;;;;;;;;;;;;;5092619;28;20304;-81
2022/05/03 05:20:43;;;;;;;;;;;;;;;;;;5094445;28;20288;-81
2022/05/03 05:23:08;;;;;;;;;;;;;;;;;;5094029;28;19916;-81
2022/05/03 05:25:34;;;;;;;;;;;;;;;;;;5095108;28;19916;-81
2022/05/03 05:27:59;;;;;;;;;;;;;;;;;;5096947;28;19982;-79
2022/05/03 05:30:24;;;;;;;;;;;;;;;;;;5096076;28;19922;-81
2022/05/03 05:32:50;;;;;;;;;;;;;;;;;;5095649;28;19923;-80
2022/05/03 05:35:16;;;;;;;;;;;;;;;;;;5095905;28;19923;-80
2022/05/03 05:37:41;;;;;;;;;;;;;;;;;;5094747;28;19957;-79
2022/05/03 05:40:07;;;;;;;;;;;;;;;;;;5094891;28;20451;-80
2022/05/03 05:42:33;;;;;;;;;;;;;;;;;;5094052;28;19920;-80
2022/05/03 05:44:58;;;;;;;;;;;;;;;;;;5100846;28;20387;-79
2022/05/03 05:47:24;;;;;;;;;;;;;;;;;;5099292;28;19924;-78
2022/05/03 05:49:49;;;;;;;;;;;;;;;;;;5094767;28;20414;-79
2022/05/03 05:54:59;;;;;;;;;;;;;;;;;;5095787;28;20394;-79
2022/05/03 05:57:24;;;;;;;;;;;;;;;;;;5092409;28;19916;-80
2022/05/03 05:59:50;;;;;;;;;;;;;;;;;;5092339;28;19923;-80
2022/05/03 06:02:15;;;;;;;;;;;;;;;;;;5096194;28;19916;-80
2022/05/03 06:04:41;;;;;;;;;;;;;;;;;;5097181;28;20432;-81
2022/05/03 06:07:06;;;;;;;;;;;;;;;;;;5095741;28;19963;-80
2022/05/03 06:09:33;;;;;;;;;;;;;;;;;;5095401;28;19951;-80
2022/05/03 06:11:58;;;;;;;;;;;;;;;;;;5097046;28;19916;-81
2022/05/03 06:14:24;;;;;;;;;;;;;;;;;;5096744;28;19966;-79
2022/05/03 06:16:50;;;;;;;;;;;;;;;;;;5099986;28;19916;-80
2022/05/03 06:19:16;;;;;;;;;;;;;;;;;;5117628;28;19919;-80
2022/05/03 06:21:41;;;;;;;;;;;;;;;;;;5117235;28;20268;-78
2022/05/03 06:24:07;;;;;;;;;;;;;;;;;;5117438;28;19916;-80
2022/05/03 06:26:34;;;;;;;;;;;;;;;;;;5116022;28;19919;-80
2022/05/03 06:29:00;;;;;;;;;;;;;;;;;;5116921;28;20010;-80
2022/05/03 06:31:25;;;;;;;;;;;;;;;;;;5116871;28;19955;-80
2022/05/03 06:33:51;;;;;;;;;;;;;;;;;;5116783;28;19916;-79
2022/05/03 06:36:17;;;;;;;;;;;;;;;;;;5116789;28;19923;-80
2022/05/03 06:38:42;;;;;;;;;;;;;;;;;;5099313;27;19912;-79
2022/05/03 06:41:08;;;;;;;;;;;;;;;;;;5096630;28;20273;-79
2022/05/03 06:43:34;;;;;;;;;;;;;;;;;;5095981;28;19920;-79
2022/05/03 06:45:59;;;;;;;;;;;;;;;;;;5096003;28;20289;-79
2022/05/03 06:48:25;;;;;;;;;;;;;;;;;;5096251;28;19916;-79
2022/05/03 06:50:50;;;;;;;;;;;;;;;;;;5096223;28;19934;-78
2022/05/03 06:53:16;;;;;;;;;;;;;;;;;;5096285;28;19916;-79
2022/05/03 06:55:41;;;;;;;;;;;;;;;;;;5096043;28;19916;-79
2022/05/03 06:58:07;;;;;;;;;;;;;;;;;;5096035;28;20283;-79
2022/05/03 07:00:32;;;;;;;;;;;;;;;;;;5096282;28;19920;-79
2022/05/03 07:02:58;;;;;;;;;;;;;;;;;;5096133;28;20356;-79
2022/05/03 07:05:23;;;;;;;;;;;;;;;;;;5097985;27;19916;-81
2022/05/03 07:07:48;;;;;;;;;;;;;;;;;;5095900;28;20430;-81
2022/05/03 07:10:14;;;;;;;;;;;;;;;;;;5095960;28;19923;-81
2022/05/03 07:12:39;;;;;;;;;;;;;;;;;;5093581;28;19923;-79
2022/05/03 07:15:05;;;;;;;;;;;;;;;;;;5095673;28;20292;-79
2022/05/03 07:22:58;;;;;;;;;;;;;;;;;;5095927;28;19923;-80
2022/05/03 07:25:24;;;;;;;;;;;;;;;;;;5095432;28;19916;-79
2022/05/03 07:27:50;;;;;;;;;;;;;;;;;;5095305;28;19920;-80
2022/05/03 07:30:16;;;;;;;;;;;;;;;;;;5095380;28;19916;-80
2022/05/03 07:32:41;;;;;;;;;;;;;;;;;;5095318;28;19977;-80
2022/05/03 07:35:07;;;;;;;;;;;;;;;;;;5094213;28;20004;-82
2022/05/03 07:37:33;;;;;;;;;;;;;;;;;;5095044;28;19923;-80
2022/05/03 07:39:58;;;;;;;;;;;;;;;;;;5095143;28;19970;-80
2022/05/03 07:42:23;;;;;;;;;;;;;;;;;;5097231;28;19985;-80
2022/05/03 07:44:49;;;;;;;;;;;;;;;;;;5094784;28;19920;-80
2022/05/03 07:47:14;;;;;;;;;;;;;;;;;;5094965;28;20376;-79
2022/05/03 07:49:40;;;;;;;;;;;;;;;;;;5093604;28;19916;-80
2022/05/03 07:52:06;;;;;;;;;;;;;;;;;;5094920;28;19916;-80
2022/05/03 07:54:32;;;;;;;;;;;;;;;;;;5093796;28;19969;-79
2022/05/03 07:56:57;;;;;;;;;;;;;;;;;;5093728;28;19916;-80
2022/05/03 07:59:25;;;;;;;;;;;;;;;;;;5095074;28;19926;-79
2022/05/03 08:01:50;;;;;;;;;;;;;;;;;;5094804;28;19923;-79
2022/05/03 08:04:16;;;;;;;;;;;;;;;;;;5095036;28;19916;-80
2022/05/03 08:06:42;;;;;;;;;;;;;;;;;;5095024;28;19923;-79
2022/05/03 08:09:07;;;;;;;;;;;;;;;;;;5095128;28;20378;-79
2022/05/03 08:11:32;;;;;;;;;;;;;;;;;;5094689;28;19920;-78
2022/05/03 08:13:58;;;;;;;;;;;;;;;;;;5093847;28;20011;-78
2022/05/03 08:16:23;;;;;;;;;;;;;;;;;;5094523;28;19915;-78
2022/05/03 08:18:49;;;;;;;;;;;;;;;;;;5097823;27;19916;-77
2022/05/03 08:21:15;;;;;;;;;;;;;;;;;;5095277;28;20359;-78
2022/05/03 08:23:40;;;;;;;;;;;;;;;;;;5094414;28;19916;-79
2022/05/03 08:26:06;;;;;;;;;;;;;;;;;;5096926;27;19976;-78
2022/05/03 08:28:32;;;;;;;;;;;;;;;;;;5096415;27;19976;-78
2022/05/03 08:30:58;;;;;;;;;;;;;;;;;;5094995;28;19923;-78
2022/05/03 08:33:23;;;;;;;;;;;;;;;;;;5094342;28;20364;-77
2022/05/03 08:35:49;;;;;;;;;;;;;;;;;;5092686;28;19920;-78
2022/05/03 08:43:43;;;;;;;;;;;;;;;;;;5093965;28;19931;-78
2022/05/03 08:46:09;;;;;;;;;;;;;;;;;;5094036;28;19917;-78
2022/05/03 08:48:37;;;;;;;;;;;;;;;;;;5093944;28;20386;-78
2022/05/03 08:51:03;;;;;;;;;;;;;;;;;;5093840;28;19916;-79
2022/05/03 08:53:29;;;;;;;;;;;;;;;;;;5094583;28;20298;-79
2022/05/03 08:55:54;;;;;;;;;;;;;;;;;;5113034;28;19912;-79
2022/05/03 08:58:21;;;;;;;;;;;;;;;;;;5113044;28;19954;-79
2022/05/03 09:00:46;;;;;;;;;;;;;;;;;;5134372;27;19916;-78
2022/05/03 09:03:12;;;;;;;;;;;;;;;;;;5134643;27;20110;-78
2022/05/03 09:05:39;;;;;;;;;;;;;;;;;;5134856;27;20371;-75
2022/05/03 09:08:08;;;;;;;;;;;;;;;;;;5134721;27;20009;-79
2022/05/03 09:10:34;;;;;;;;;;;;;;;;;;5134552;27;19923;-77
2022/05/03 09:13:12;;;;;;;;;;;;;;;;;;5134751;27;19916;-77
2022/05/03 09:15:37;;;;;;;;;;;;;;;;;;5135011;27;20390;-78
2022/05/03 09:18:03;;;;;;;;;;;;;;;;;;5134419;28;19928;-77
2022/05/03 09:26:11;;;;;;;;;;;;;;;;;;5138022;28;19975;-77
2022/05/03 09:28:42;;;;;;;;;;;;;;;;;;5134952;27;20013;-78
2022/05/03 09:31:08;;;;;;;;;;;;;;;;;;5134845;27;20327;-78
2022/05/03 09:33:36;;;;;;;;;;;;;;;;;;5134227;27;19969;-78
2022/05/03 09:36:06;;;;;;;;;;;;;;;;;;5135269;27;19922;-78
2022/05/03 09:38:32;;;;;;;;;;;;;;;;;;5138563;27;19923;-77
2022/05/03 09:41:10;;;;;;;;;;;;;;;;;;5138558;27;19915;-78
2022/05/03 09:43:35;;;;;;;;;;;;;;;;;;5137997;27;19919;-77
2022/05/03 09:46:04;;;;;;;;;;;;;;;;;;5138506;27;19998;-78
2022/05/03 09:48:50;;;;;;;;;;;;;;;;;;5138501;27;20409;-78
2022/05/03 09:51:16;;;;;;;;;;;;;;;;;;5137759;27;19917;-78
2022/05/03 09:53:41;;;;;;;;;;;;;;;;;;5138213;27;20278;-78
2022/05/03 09:56:11;;;;;;;;;;;;;;;;;;5138296;27;20274;-77
2022/05/03 09:58:38;;;;;;;;;;;;;;;;;;5138191;27;19915;-78
2022/05/03 10:01:04;;;;;;;;;;;;;;;;;;5138114;27;19919;-78
2022/05/03 10:03:29;;;;;;;;;;;;;;;;;;5138057;27;20371;-78
2022/05/03 10:05:55;;;;;;;;;;;;;;;;;;5137817;27;19968;-78
2022/05/03 10:08:21;;;;;;;;;;;;;;;;;;5138057;27;19923;-78
2022/05/03 10:10:56;;;;;;;;;;;;;;;;;;5136597;27;19916;-78
2022/05/03 10:13:21;;;;;;;;;;;;;;;;;;5137844;27;19975;-79
2022/05/03 10:21:30;;;;;;;;;;;;;;;;;;5138110;27;19966;-78
2022/05/03 10:24:03;;;;;;;;;;;;;;;;;;5129481;27;20271;-79
2022/05/03 10:26:47;;;;;;;;;;;;;;;;;;5115624;28;19965;-78
2022/05/03 10:29:13;;;;;;;;;;;;;;;;;;5117292;28;20317;-78
2022/05/03 10:31:54;;;;;;;;;;;;;;;;;;5116781;28;19912;-79
2022/05/03 10:34:38;;;;;;;;;;;;;;;;;;5116849;28;19923;-79
2022/05/03 10:37:03;;;;;;;;;;;;;;;;;;5116574;28;19922;-79
2022/05/03 10:39:29;;;;;;;;;;;;;;;;;;5116696;28;19919;-78
2022/05/03 10:41:57;;;;;;;;;;;;;;;;;;5115407;28;19911;-78
2022/05/03 10:44:40;;;;;;;;;;;;;;;;;;5116411;27;19923;-79
2022/05/03 10:47:06;;;;;;;;;;;;;;;;;;5115882;28;19916;-79
2022/05/03 10:49:32;;;;;;;;;;;;;;;;;;5115991;28;20006;-79
2022/05/03 10:51:57;;;;;;;;;;;;;;;;;;5116518;28;19918;-79
2022/05/03 10:54:22;;;;;;;;;;;;;;;;;;5116657;28;20019;-78
2022/05/03 10:57:01;;;;;;;;;;;;;;;;;;5116469;28;20360;-78
2022/05/03 10:59:44;;;;;;;;;;;;;;;;;;5116508;28;19916;-78
2022/05/03 11:02:10;;;;;;;;;;;;;;;;;;5116429;28;19951;-79
2022/05/03 11:04:56;;;;;;;;;;;;;;;;;;5116381;28;19954;-79
2022/05/03 11:07:25;;;;;;;;;;;;;;;;;;5116116;28;19915;-78
2022/05/03 11:09:51;;;;;;;;;;;;;;;;;;5116407;28;19919;-79
2022/05/03 11:12:16;;;;;;;;;;;;;;;;;;5116018;28;19980;-79
2022/05/03 11:14:41;;;;;;;;;;;;;;;;;;5116086;28;20436;-79
2022/05/03 11:17:10;;;;;;;;;;;;;;;;;;5116292;28;20419;-78
2022/05/03 11:19:37;;;;;;;;;;;;;;;;;;5115785;28;19920;-78
2022/05/03 11:22:08;;;;;;;;;;;;;;;;;;5116089;28;19923;-79
2022/05/03 11:24:34;;;;;;;;;;;;;;;;;;5116061;28;19955;-78
2022/05/03 11:27:00;;;;;;;;;;;;;;;;;;5115790;28;19982;-78
2022/05/03 11:29:29;;;;;;;;;;;;;;;;;;5115649;28;19998;-79
2022/05/03 11:31:58;;;;;;;;;;;;;;;;;;5115944;28;19972;-79
2022/05/03 11:34:23;;;;;;;;;;;;;;;;;;5115653;28;19923;-78
2022/05/03 11:36:50;;;;;;;;;;;;;;;;;;5115758;28;19915;-78
2022/05/03 11:39:19;;;;;;;;;;;;;;;;;;5115808;28;19998;-78
2022/05/03 11:41:45;;;;;;;;;;;;;;;;;;5115388;28;20371;-78
2022/05/03 11:44:11;;;;;;;;;;;;;;;;;;5115416;28;20290;-78
2022/05/03 11:46:37;;;;;;;;;;;;;;;;;;5114976;28;19922;-79
2022/05/03 11:49:05;;;;;;;;;;;;;;;;;;5115407;28;20032;-77
2022/05/03 11:57:13;;;;;;;;;;;;;;;;;;5116304;28;19922;-77
2022/05/03 11:59:39;;;;;;;;;;;;;;;;;;5116787;28;19916;-78
2022/05/03 12:02:15;;;;;;;;;;;;;;;;;;5116723;28;19915;-77
2022/05/03 12:05:00;;;;;;;;;;;;;;;;;;5118359;28;19916;-78
2022/05/03 12:07:25;;;;;;;;;;;;;;;;;;5124134;28;19916;-77
2022/05/03 12:09:54;;;;;;;;;;;;;;;;;;5121942;28;19974;-76
2022/05/03 12:15:14;;;;;;;;;;;;;;;;;;5121135;28;19985;-78
2022/05/03 12:17:54;;;;;;;;;;;;;;;;;;5119078;28;19976;-78
2022/05/03 12:20:21;;;;;;;;;;;;;;;;;;5099038;28;19920;-79
2022/05/03 12:23:06;;;;;;;;;;;;;;;;;;5100058;28;19916;-78
2022/05/03 12:25:32;;;;;;;;;;;;;;;;;;5100619;28;19964;-78
2022/05/03 12:28:01;;;;;;;;;;;;;;;;;;5098900;28;20010;-78
2022/05/03 12:30:27;;;;;;;;;;;;;;;;;;5097441;28;19916;-77
2022/05/03 12:32:53;;;;;;;;;;;;;;;;;;5096980;28;19945;-78
2022/05/03 12:35:27;;;;;;;;;;;;;;;;;;5097514;28;19939;-78
2022/05/03 12:37:53;;;;;;;;;;;;;;;;;;5097346;28;19916;-78
2022/05/03 12:40:25;;;;;;;;;;;;;;;;;;5096807;28;20299;-78
2022/05/03 12:42:51;;;;;;;;;;;;;;;;;;5097617;28;19926;-78
2022/05/03 12:45:20;;;;;;;;;;;;;;;;;;5099816;28;20007;-79
2022/05/03 12:47:48;;;;;;;;;;;;;;;;;;5098139;28;19969;-79
2022/05/03 12:50:16;;;;;;;;;;;;;;;;;;5079606;28;20216;-79
2022/05/03 12:52:42;;;;;;;;;;;;;;;;;;5099053;28;20401;-77
2022/05/03 12:55:07;;;;;;;;;;;;;;;;;;5111652;28;19977;-77
2022/05/03 13:00:17;;;;;;;;;;;;;;;;;;5111609;28;20013;-78
2022/05/03 13:02:43;;;;;;;;;;;;;;;;;;5097477;28;19971;-77
2022/05/03 13:05:08;;;;;;;;;;;;;;;;;;5105020;28;20287;-78
2022/05/03 13:07:34;;;;;;;;;;;;;;;;;;5109608;28;19955;-78
2022/05/03 13:09:59;;;;;;;;;;;;;;;;;;5103496;28;20279;-78
2022/05/03 13:12:24;;;;;;;;;;;;;;;;;;5110020;28;19915;-78
2022/05/03 13:14:50;;;;;;;;;;;;;;;;;;5119418;28;19955;-78
2022/05/03 13:17:16;;;;;;;;;;;;;;;;;;5118153;28;19923;-78
2022/05/03 13:19:41;;;;;;;;;;;;;;;;;;5121734;28;19916;-79
2022/05/03 13:22:07;;;;;;;;;;;;;;;;;;5121931;28;19915;-77
2022/05/03 13:24:32;;;;;;;;;;;;;;;;;;5121367;28;20021;-78
2022/05/03 13:26:58;;;;;;;;;;;;;;;;;;5120485;28;19923;-79
2022/05/03 13:29:24;;;;;;;;;;;;;;;;;;5119583;28;19924;-78
2022/05/03 13:31:50;;;;;;;;;;;;;;;;;;5098436;28;20016;-78
2022/05/03 13:34:15;;;;;;;;;;;;;;;;;;5098188;28;19916;-78
2022/05/03 13:42:11;;;;;;;;;;;;;;;;;;5102949;28;19974;-78
2022/05/03 13:44:37;;;;;;;;;;;;;;;;;;5103996;28;20256;-78
2022/05/03 13:47:05;;;;;;;;;;;;;;;;;;5117893;28;19931;-82
2022/05/03 13:49:31;;;;;;;;;;;;;;;;;;5117413;28;20379;-79
2022/05/03 13:51:57;;;;;;;;;;;;;;;;;;5118883;28;19919;-80
2022/05/03 13:54:23;;;;;;;;;;;;;;;;;;5117306;28;20859;-80
2022/05/03 13:56:48;;;;;;;;;;;;;;;;;;5119631;28;20004;-80
2022/05/03 13:59:14;;;;;;;;;;;;;;;;;;5118860;28;19915;-80
2022/05/03 14:01:39;;;;;;;;;;;;;;;;;;5149940;27;19931;-80
2022/05/03 14:04:05;;;;;;;;;;;;;;;;;;5117650;28;19965;-82
2022/05/03 14:06:31;;;;;;;;;;;;;;;;;;5119407;28;19919;-80
2022/05/03 14:08:58;;;;;;;;;;;;;;;;;;5154032;27;19916;-80
2022/05/03 14:11:23;;;;;;;;;;;;;;;;;;5113565;28;19923;-80
2022/05/03 14:13:50;;;;;;;;;;;;;;;;;;5107181;28;19931;-80
2022/05/03 14:16:17;;;;;;;;;;;;;;;;;;5096656;28;19923;-81
2022/05/03 14:18:45;;;;;;;;;;;;;;;;;;5098229;28;20380;-80
2022/05/03 14:21:11;;;;;;;;;;;;;;;;;;5109103;28;19927;-80
2022/05/03 14:23:38;;;;;;;;;;;;;;;;;;5119418;28;19920;-81
2022/05/03 14:26:04;;;;;;;;;;;;;;;;;;5123381;28;19963;-81
2022/05/03 14:28:32;;;;;;;;;;;;;;;;;;5120488;28;19927;-81
2022/05/03 14:30:57;;;;;;;;;;;;;;;;;;5121890;28;19967;-79
2022/05/03 14:33:23;;;;;;;;;;;;;;;;;;5118708;28;19928;-78
2022/05/03 14:35:48;;;;;;;;;;;;;;;;;;5118287;28;19935;-79
2022/05/03 14:38:14;;;;;;;;;;;;;;;;;;5121183;28;19916;-79
2022/05/03 14:40:39;;;;;;;;;;;;;;;;;;5111795;28;19920;-78
2022/05/03 17:42:49;;;;;;;;;;;;;;;;;;5558044;23;19934;-82
2022/05/03 17:45:15;;;;;;;;;;;;;;;;;;4902966;29;20375;-83
2022/05/03 17:47:40;;;;;;;;;;;;;;;;;;4907921;29;19925;-84
2022/05/03 17:50:06;;;;;;;;;;;;;;;;;;4905977;29;19923;-84
2022/05/03 17:55:26;;;;;;;;;;;;;;;;;;4886165;29;19920;-88
2022/05/03 17:57:52;;;;;;;;;;;;;;;;;;4888768;29;20391;-87
2022/05/03 18:00:18;;;;;;;;;;;;;;;;;;4892740;29;19919;-89
2022/05/03 18:02:43;;;;;;;;;;;;;;;;;;4885346;29;20388;-87
2022/05/03 18:05:13;;;;;;;;;;;;;;;;;;4878991;29;19934;-88
2022/05/03 18:07:39;;;;;;;;;;;;;;;;;;4881951;29;19923;-86
2022/05/03 18:10:08;;;;;;;;;;;;;;;;;;4876909;29;19935;-89
2022/05/03 18:12:34;;;;;;;;;;;;;;;;;;4877177;29;19936;-83
2022/05/03 18:14:59;;;;;;;;;;;;;;;;;;4879321;29;19920;-83
2022/05/03 18:17:24;;;;;;;;;;;;;;;;;;4883458;29;19920;-81
2022/05/03 18:19:50;;;;;;;;;;;;;;;;;;4880793;29;19928;-83
2022/05/03 18:22:15;;;;;;;;;;;;;;;;;;4886084;29;19924;-84
2022/05/03 18:24:41;;;;;;;;;;;;;;;;;;4877898;29;20671;-81
2022/05/03 18:27:06;;;;;;;;;;;;;;;;;;4882709;29;20322;-83
2022/05/03 18:29:32;;;;;;;;;;;;;;;;;;4887887;29;20338;-82
2022/05/03 18:31:57;;;;;;;;;;;;;;;;;;4897715;29;19927;-83
2022/05/03 18:34:23;;;;;;;;;;;;;;;;;;4915252;29;20286;-82
2022/05/03 18:36:48;;;;;;;;;;;;;;;;;;4915058;29;20387;-88
2022/05/03 18:39:14;;;;;;;;;;;;;;;;;;4912803;29;19927;-83
2022/05/03 18:41:39;;;;;;;;;;;;;;;;;;4911603;29;19930;-85
2022/05/03 18:44:07;;;;;;;;;;;;;;;;;;4916658;29;20878;-83
2022/05/03 18:46:33;;;;;;;;;;;;;;;;;;4910581;29;20275;-84
2022/05/03 18:48:58;;;;;;;;;;;;;;;;;;4914782;29;19920;-82
2022/05/03 18:51:24;;;;;;;;;;;;;;;;;;4914112;29;19934;-83
2022/05/03 18:55:40;;;;;;;;;;;;;;;;;;4913415;29;19930;-82
2022/05/03 18:56:35;;;;;;;;;;;;;;;;;;4913546;29;19923;-81
2022/05/03 18:59:00;;;;;;;;;;;;;;;;;;4909601;29;20018;-87
2022/05/03 19:01:26;;;;;;;;;;;;;;;;;;4897321;29;19978;-85
2022/05/03 19:03:51;;;;;;;;;;;;;;;;;;4896714;29;19928;-85
2022/05/03 19:06:16;;;;;;;;;;;;;;;;;;4908772;29;19924;-85
2022/05/03 19:08:42;;;;;;;;;;;;;;;;;;4907604;29;19924;-82
2022/05/03 19:11:08;;;;;;;;;;;;;;;;;;4916199;29;20254;-84
2022/05/03 19:13:33;;;;;;;;;;;;;;;;;;4910971;29;20071;-84
2022/05/03 19:15:58;;;;;;;;;;;;;;;;;;4917289;29;19934;-78
2022/05/03 19:18:24;;;;;;;;;;;;;;;;;;4919321;29;19915;-83
2022/05/03 19:20:49;;;;;;;;;;;;;;;;;;4907830;29;19924;-86
2022/05/03 19:23:15;;;;;;;;;;;;;;;;;;4898663;29;20292;-83
2022/05/03 19:31:10;;;;;;;;;;;;;;;;;;4896862;29;19995;-81
2022/05/03 19:33:36;;;;;;;;;;;;;;;;;;4893114;29;19971;-84
2022/05/03 19:36:02;;;;;;;;;;;;;;;;;;4893980;29;19923;-77
2022/05/03 19:38:27;;;;;;;;;;;;;;;;;;4894847;29;19922;-86
2022/05/03 19:40:53;;;;;;;;;;;;;;;;;;4898487;29;19930;-83
2022/05/03 19:43:20;;;;;;;;;;;;;;;;;;4894754;29;20014;-82
2022/05/03 19:45:46;;;;;;;;;;;;;;;;;;4896633;29;19920;-80
2022/05/03 19:48:12;;;;;;;;;;;;;;;;;;4897307;29;20335;-78
2022/05/03 19:50:41;;;;;;;;;;;;;;;;;;4895202;29;19923;-87
2022/05/03 19:53:08;;;;;;;;;;;;;;;;;;4897119;29;19967;-81
2022/05/03 19:55:33;;;;;;;;;;;;;;;;;;4902588;29;20284;-83
2022/05/03 19:57:59;;;;;;;;;;;;;;;;;;4900313;29;19923;-84
2022/05/03 20:00:26;;;;;;;;;;;;;;;;;;4897324;29;20265;-86
2022/05/03 20:02:52;;;;;;;;;;;;;;;;;;4905035;29;19955;-86
2022/05/03 20:05:17;;;;;;;;;;;;;;;;;;4911689;29;19919;-85
2022/05/03 20:07:50;;;;;;;;;;;;;;;;;;4914187;29;20005;-85
2022/05/03 20:10:18;;;;;;;;;;;;;;;;;;4916289;29;20018;-87
2022/05/03 20:12:44;;;;;;;;;;;;;;;;;;4917086;29;20371;-89
2022/05/03 20:15:09;;;;;;;;;;;;;;;;;;4917188;29;19919;-83
2022/05/03 20:17:35;;;;;;;;;;;;;;;;;;4916072;29;19979;-88
2022/05/03 20:20:02;;;;;;;;;;;;;;;;;;4916109;29;19930;-88
2022/05/03 20:22:28;;;;;;;;;;;;;;;;;;4917857;29;19946;-90
2022/05/03 20:24:54;;;;;;;;;;;;;;;;;;4916221;29;20364;-88
2022/05/03 20:27:19;;;;;;;;;;;;;;;;;;4915179;29;19921;-88
2022/05/03 20:29:44;;;;;;;;;;;;;;;;;;4913647;29;20053;-91
2022/05/03 20:32:10;;;;;;;;;;;;;;;;;;4914662;29;19927;-88
2022/05/03 20:34:36;;;;;;;;;;;;;;;;;;4914439;29;19927;-86
2022/05/03 20:37:04;;;;;;;;;;;;;;;;;;4917879;29;19975;-89
2022/05/03 20:39:30;;;;;;;;;;;;;;;;;;4915461;29;20073;-88
2022/05/03 20:41:58;;;;;;;;;;;;;;;;;;4914175;29;20028;-83
2022/05/03 20:44:24;;;;;;;;;;;;;;;;;;4913968;29;20014;-91
2022/05/03 20:49:33;;;;;;;;;;;;;;;;;;4912510;29;20364;-89
2022/05/03 20:51:58;;;;;;;;;;;;;;;;;;4914857;29;19919;-83